Joseph Richard

Chefscout - RC Lens
3 Dez 2028
Sonntag
Verarbeitung

Persönlichkeit

Anpassungsfähigkeit (12) Ehrgeiz (18) Kontroverse (20) Loyalität (4) Druck (15) Professionalität (6) Fairness (1) Temperament (15)

Profil

Trainerstil Demokratisch
Lizenz Kontinentale A
Entschlossenheit 12
Menschenführung 6
Motivation 13
Disziplin 5
Arbeitszufriedenheit
100%
Ermüdung
0%
Rolle Chefscout
Gehalt 97.2K p/W
Vertrag 14.03.2030

Leistung

Verhalten Gut
Trainingseffektivität
50%
Spielerentwicklung
45%
Verletzungsprävention
25%
Taktische Umsetzung
40%

Letzte Ereignisse

Nahm an einer Scouting-Besprechung teil jetzt
Nahm an einer Scouting-Besprechung teil jetzt
Empfahl ein Transferziel jetzt
Empfahl ein Transferziel jetzt
Empfahl ein Transferziel jetzt
Empfahl ein Transferziel jetzt
Empfahl ein Transferziel jetzt
Spieler begutachtet jetzt

Aktuell beobachtet

240
Spieler Verein Status Fähigkeit Vertrauen Beobachtet Zuletzt beobachtet Letzte Stimme
Amine Gouiri Olympique de Marseille Aktiv 151 / 149 40% 6 02.12.2028 -
Thiago Brentford Aktiv 157 / 157 40% 15 02.12.2028 -
Hamza Igamane LOSC Lille Aktiv 149 / 146 40% 5 02.12.2028 -
Esteban Lepaul Stade Rennais Aktiv 142 / 144 40% 14 29.11.2028 -
Emanuel Emegha Chelsea Aktiv 148 / 149 40% 6 29.11.2028 -
Mika Biereth Angers SCO Aktiv 148 / 142 40% 4 29.11.2028 -
Liel Abada Inter Miami CF Aktiv 138 / 135 40% 16 28.11.2028 -
Gonzalo Plata Nacional Aktiv 139 / 141 40% 4 28.11.2028 -
João Pedro Chelsea Aktiv 163 / 160 40% 15 26.11.2028 -
Eduardo Lozano Botafogo Aktiv 145 / 145 40% 7 26.11.2028 -
Iliman N'Diaye Everton Aktiv 163 / 160 40% 19 26.11.2028 -
Morgan Rogers Chelsea Aktiv 166 / 166 40% 5 25.11.2028 -
Rodrigo Muniz Fulham Aktiv 148 / 149 40% 11 25.11.2028 -
Gabriel Martinelli Arsenal Aktiv 171 / 168 40% 7 25.11.2028 -
Mateo Joseph Leeds United Aktiv 143 / 144 40% 2 24.11.2028 -
Babis Kostoulas Oxford United Aktiv 150 / 150 40% 3 23.11.2028 -
Ibrahim Osman Norwich City Aktiv 143 / 147 40% 5 23.11.2028 -
Isak Jansson OGC Nice Aktiv 150 / 146 40% 6 23.11.2028 -
Joe Gelhardt Hull City Aktiv 144 / 142 40% 2 22.11.2028 -
Jonathan David Atalanta Aktiv 159 / 160 40% 4 22.11.2028 -
Zeki Amdouni Stade Brestois Aktiv 144 / 142 40% 5 19.11.2028 -
Francesco Pio Esposito Frosinone Aktiv 154 / 155 40% 2 19.11.2028 -
Nicolas Jackson Aston Villa Aktiv 160 / 157 40% 16 18.11.2028 -
Matías Fernández-Pardo Atalanta Aktiv 153 / 157 40% 3 18.11.2028 -
Endrick Boca Juniors Aktiv 165 / 166 40% 7 17.11.2028 -
Cucho Hernández Granada Aktiv 154 / 150 40% 2 17.11.2028 -
Jayden Danns Bradford City Aktiv 143 / 143 40% 3 16.11.2028 -
Eli Junior Kroupi Bournemouth Aktiv 147 / 154 40% 1 16.11.2028 -
Dango Ouattara Middlesbrough Aktiv 153 / 155 40% 5 15.11.2028 -
Brennan Johnson Southampton Aktiv 155 / 155 40% 5 15.11.2028 -
Barış Alper Yılmaz Cruzeiro Aktiv 149 / 155 40% 6 13.11.2028 -
Darwin Núñez Al-Hilal Aktiv 165 / 153 40% 3 13.11.2028 -
Mohamed-Ali Cho Hull City Aktiv 150 / 150 40% 10 12.11.2028 -
Fábio Carvalho Brentford Aktiv 151 / 149 40% 7 12.11.2028 -
Largie Ramazani Leeds United Aktiv 148 / 147 40% 3 12.11.2028 -
Matteo Cancellieri Flamengo Aktiv 153 / 143 40% 5 11.11.2028 -
Tommy Watson Cardiff City Aktiv 141 / 143 40% 1 11.11.2028 -
Konstantin Tyukavin New York City Aktiv 148 / 141 40% 3 07.11.2028 -
Eddie Nketiah Crystal Palace Aktiv 152 / 149 40% 10 06.11.2028 -
Mao Hosoya Santos Aktiv 136 / 138 67% 2 06.11.2028 Befürworten
Loïs Openda Juventus Aktiv 157 / 157 40% 11 02.11.2028 -
Dion Beljo AJ Auxerre Aktiv 142 / 143 40% 2 02.11.2028 -
Nick Woltemade Newcastle United Aktiv 163 / 161 40% 2 02.11.2028 -
Evann Guessand Aston Villa Aktiv 152 / 151 40% 5 01.11.2028 -
Lois Vanaken Monaco Aktiv 146 / 145 40% 1 01.11.2028 -
Noah Okafor Leeds United Aktiv 151 / 148 40% 2 30.10.2028 -
Santiago Castro OGC Nice Aktiv 155 / 161 40% 3 25.10.2028 -
Ilyas Ansah Hull City Aktiv 146 / 145 40% 1 23.10.2028 -
Dwight McNeil Crystal Palace Aktiv 145 / 147 40% 4 16.10.2028 -
Mathys Tel Tottenham Aktiv 156 / 157 40% 2 16.10.2028 -
Georginio Rutter Brighton Aktiv 158 / 159 40% 15 14.10.2028 -
Igor Paixão Olympique de Marseille Aktiv 157 / 157 40% 6 14.10.2028 Beobachten
Kevin Schade Chelsea Aktiv 161 / 159 40% 8 06.10.2028 -
Sebastiano Esposito Cagliari Aktiv 149 / 150 40% 2 04.10.2028 -
Jørgen Strand Larsen Brighton Aktiv 156 / 154 40% 7 02.10.2028 -
Kerem Aktürkoğlu Atlético Mineiro Aktiv 143 / 148 40% 1 25.09.2028 -
Folarin Balogun Monaco Aktiv 148 / 146 40% 1 22.09.2028 -
Taty Castellanos West Ham United Aktiv 154 / 151 40% 12 18.09.2028 -
Ansu Fati Monaco Aktiv 150 / 149 40% 5 15.09.2028 -
Pablo Felipe West Ham United Aktiv 143 / 147 40% 1 15.09.2028 -
João Félix Red Bull Salzburg Aktiv 163 / 160 40% 1 11.09.2028 -
Maurits Kjærgaard Red Bull Salzburg Aktiv 146 / 145 40% 1 11.09.2028 -
Thierno Barry Manchester United Aktiv 146 / 151 40% 1 10.09.2028 -
Fotis Ioannidis Olympique Lyonnais Aktiv 147 / 143 40% 1 07.09.2028 -
Kenan Yıldız Chelsea Aktiv 166 / 167 40% 1 04.09.2028 -
Jayden Addai Bari Aktiv 139 / 141 40% 1 14.08.2028 -
Zito Luvumbo Cagliari Aktiv 139 / 136 40% 1 14.08.2028 -
Lameck Banda Lecce Aktiv 138 / 137 40% 1 14.08.2028 -
Lazar Samardžić Cagliari Aktiv 154 / 152 40% 1 11.08.2028 -
Lucas Da Cunha Como Aktiv 154 / 151 40% 1 11.08.2028 -
Rodrigo Gomes Wolverhampton Aktiv 152 / 148 40% 2 17.07.2028 -
Luca Koleosho Paris FC Abgelehnt 141 / 145 40% 1 17.07.2028 -
Faitout Maouassa Valenciennes Verloren 123 / 128 83% 1 26.06.2028 -
Kiani Inge Groningen Aktiv 111 / 119 40% 5 03.06.2028 -
Andrija Bulatović Chamois Niortais Aktiv 130 / 134 40% 2 03.06.2028 -
Lucas Høgsberg RC Strasbourg Aktiv 147 / 144 40% 5 29.05.2028 -
Andrey Ivlev Nizhniy Novgorod Aktiv 109 / 115 40% 4 28.05.2028 -
Giovanni Leoni Lincoln City Aktiv 143 / 145 40% 5 28.05.2028 -
Miguel Figueiredo Benfica Aktiv 121 / 131 40% 3 27.05.2028 -
Celías Ingenthron Platense Aktiv 113 / 128 40% 4 27.05.2028 -
Daniel Banjaqui Benfica Aktiv 122 / 128 40% 6 26.05.2028 -
Thijs Kraaijeveld USM Alger Aktiv 123 / 129 40% 3 26.05.2028 -
Jason Witsel PSV Aktiv 123 / 129 40% 4 25.05.2028 -
Jan Bürger Northampton Town Aktiv 118 / 125 40% 8 25.05.2028 -
Josh Nichols Oldham Athletic Aktiv 120 / 126 40% 8 23.05.2028 -
Christos Mouzakitis Hull City Aktiv 134 / 142 40% 12 23.05.2028 -
Thato Sibiya Orlando Pirates Aktiv 116 / 123 40% 2 23.05.2028 -
Jorthy Mokio ADO Den Haag Aktiv 132 / 138 40% 5 22.05.2028 -
Bernardo Lima Porto Aktiv 106 / 116 40% 6 18.05.2028 -
Ayden Heaven Portsmouth Aktiv 146 / 152 40% 4 16.05.2028 -
Riquelme Thompson-Jones Accrington Stanley Aktiv 109 / 115 40% 4 12.05.2028 -
Trey Nyoni Rotherham United Aktiv 136 / 146 40% 6 09.05.2028 -
Honest Ahanor Atalanta Aktiv 136 / 140 40% 4 09.05.2028 -
Tobías Ramírez River Plate Aktiv 130 / 130 40% 2 05.05.2028 -
Tyler Fletcher Rotherham United Aktiv 110 / 119 40% 4 29.04.2028 -
Josh Acheampong Everton Aktiv 145 / 147 40% 3 27.04.2028 -
Martim Cunha Porto Aktiv 106 / 112 40% 3 21.04.2028 -
Olivier Leroux Mouscron Aktiv 101 / 108 40% 1 15.04.2028 -
Victor Hernandez Santa Fe Aktiv 124 / 129 40% 1 03.04.2028 -
Augusto Bando Ascoli Aktiv 108 / 115 40% 2 02.04.2028 -
David Blanc Le Havre AC Aktiv 105 / 117 40% 1 31.03.2028 -
Kauã Moraes Flamengo Aktiv 132 / 130 40% 2 28.03.2028 -
Matvey Bardachev Zenit Aktiv 103 / 111 40% 1 26.03.2028 -
Thiago Silvero Vélez Aktiv 128 / 129 40% 1 20.03.2028 -
Amine Boukamir Charleroi Aktiv 106 / 112 40% 1 07.03.2028 -
Martin Jedlička Banik Ostrava Aktiv 128 / 132 40% 1 10.01.2028 -
Santiago Silva Lech Aktiv 135 / 127 40% 1 10.01.2028 -
Jesus Ferreira Seattle Sounders Aktiv 128 / 125 40% 2 31.12.2027 -
Benjamín Rollheiser Santos Aktiv 132 / 135 40% 1 31.12.2027 -
Martín Ojeda Orlando City Aktiv 132 / 129 40% 8 29.12.2027 -
Ismaïla Sarr Crystal Palace Aktiv 154 / 150 40% 10 28.12.2027 -
Hamza Igamane LOSC Lille Verloren 153 / 150 40% 3 27.12.2027 -
José Manuel López Palmeiras Aktiv 139 / 140 40% 5 23.12.2027 -
Petar Musa FC Dallas Aktiv 139 / 136 40% 7 23.12.2027 -
Manfred Ugalde Spartak Moscow Aktiv 138 / 139 40% 3 23.12.2027 -
Tammy Abraham Aston Villa Aktiv 146 / 144 40% 7 22.12.2027 -
Germán Berterame Inter Miami CF Aktiv 137 / 140 40% 9 19.12.2027 -
Pedro Flamengo Aktiv 138 / 142 40% 9 13.12.2027 -
Musa Barrow ES Setif Aktiv 143 / 138 40% 1 29.11.2027 -
Nicolás González Juventus Aktiv 159 / 158 40% 3 16.11.2027 -
Dominic Solanke Tottenham Aktiv 153 / 152 40% 6 14.11.2027 -
Taiwo Awoniyi Middlesbrough Aktiv 145 / 145 40% 1 11.11.2027 -
Boulaye Dia Lazio Aktiv 142 / 145 40% 2 05.11.2027 -
Roberto Fernández Braga Aktiv 150 / 143 40% 13 27.10.2027 -
Luis Suárez Sporting CP Aktiv 159 / 156 40% 5 25.10.2027 -
Yassir Zabiri Stade Rennais Aktiv 137 / 138 40% 5 17.10.2027 -
Cody Gakpo Liverpool Aktiv 161 / 166 40% 8 12.10.2027 -
Jarrod Bowen West Ham United Aktiv 160 / 155 40% 5 22.09.2027 -
Joshua Zirkzee Manchester United Aktiv 148 / 150 40% 3 19.09.2027 -
Wilson Isidor Sunderland Aktiv 137 / 145 40% 3 17.09.2027 -
Ahmad Ngouyamsa US Creteil Aktiv 109 / 116 79% 1 05.07.2027 Befürworten
Yann Gboho Toulouse FC Aktiv 132 / 140 79% 1 28.06.2027 Befürworten
Yehor Yarmoliuk Brentford Aktiv 145 / 147 40% 5 02.06.2027 -
Chemsdine Talbi Sunderland Aktiv 142 / 145 40% 5 02.06.2027 -
Mario Stroeykens Anderlecht Aktiv 132 / 134 40% 1 02.06.2027 -
Xavi Simons Tottenham Aktiv 157 / 154 40% 3 01.06.2027 -
Erick Sánchez RC Lens Aktiv 139 / 139 68% 1 01.06.2027 Befürworten
Kwadwo Baah Watford Aktiv 132 / 126 40% 1 01.06.2027 -
Giacomo Raspadori Atalanta Aktiv 150 / 148 40% 4 31.05.2027 -
Carlos Forbs Club Brugge Aktiv 138 / 137 40% 6 31.05.2027 -
Nicolò Zaniolo Udinese Aktiv 142 / 146 40% 5 30.05.2027 -
Óscar Mingueza Crystal Palace Aktiv 155 / 148 40% 5 30.05.2027 -
Manu Koné AS Roma Aktiv 167 / 164 40% 8 27.05.2027 -
Sofiane Diop OGC Nice Aktiv 146 / 150 40% 7 24.05.2027 -
Jack Rudoni Coventry City Aktiv 135 / 137 40% 1 21.05.2027 -
Savinho Tottenham Aktiv 159 / 158 40% 5 20.05.2027 -
Ludovic Blas Stade Rennais Aktiv 142 / 141 40% 7 19.05.2027 -
Osame Sahraoui LOSC Lille Aktiv 145 / 140 40% 6 19.05.2027 -
Kevin Fulham Aktiv 154 / 154 40% 6 16.05.2027 -
Hákon Arnar Haraldsson LOSC Lille Aktiv 149 / 152 40% 6 16.05.2027 -
James Garner Everton Aktiv 148 / 145 40% 3 15.05.2027 -
Tiago Santos LOSC Lille Aktiv 142 / 147 40% 4 15.05.2027 -
Tino Livramento Newcastle United Aktiv 154 / 158 40% 4 12.05.2027 -
Yeremy Pino Crystal Palace Aktiv 155 / 147 40% 3 12.05.2027 -
Jan Paul van Hecke Tottenham Aktiv 155 / 154 40% 1 12.05.2027 -
Tristan Degreef Anderlecht Aktiv 128 / 133 40% 1 12.05.2027 -
Aimé Omgba KAA Gent Aktiv 128 / 125 40% 1 07.05.2027 -
James Maddison Tottenham Aktiv 160 / 155 40% 2 30.04.2027 -
Pau Víctor Braga Aktiv 140 / 134 40% 7 27.04.2027 -
Gianluca Scamacca Atalanta Aktiv 151 / 149 40% 4 27.04.2027 -
Boubacar Kamara Aston Villa Aktiv 163 / 161 40% 5 24.04.2027 -
Moisés Caicedo Chelsea Aktiv 168 / 169 40% 5 22.04.2027 -
Harry Wilson Leeds United Aktiv 146 / 148 40% 1 21.04.2027 -
Ilay Camara Anderlecht Aktiv 129 / 126 40% 4 15.04.2027 -
Marcus Edwards Burnley Aktiv 143 / 134 40% 2 12.04.2027 -
Amadou Onana Aston Villa Aktiv 159 / 161 40% 4 03.04.2027 -
Christian Pulisic AC Milan Aktiv 165 / 163 40% 4 02.04.2027 -
Vanderson Monaco Aktiv 148 / 135 40% 3 01.04.2027 -
Mats Wieffer Brighton Aktiv 147 / 149 40% 3 01.04.2027 -
Florentino Luís Ipswich Town Aktiv 138 / 140 40% 2 01.04.2027 -
Pedro Porro Tottenham Aktiv 148 / 154 40% 1 25.03.2027 -
Ilan Kebbal Paris FC Aktiv 132 / 142 40% 1 19.03.2027 -
Nordi Mukiele Sunderland Aktiv 143 / 138 40% 1 18.03.2027 -
Manor Solomon West Ham United Aktiv 139 / 135 40% 2 15.03.2027 -
Bradley Locko Stade Brestois Aktiv 132 / 132 40% 1 11.03.2027 -
Agustín Palavecino Cruz Azul Aktiv 133 / 144 40% 1 05.03.2027 -
Levi Colwill Chelsea Aktiv 161 / 159 40% 4 28.02.2027 -
Jake O'Brien Everton Aktiv 143 / 147 40% 2 28.02.2027 -
Cristian Uribe Monaco Aktiv 147 / 148 40% 2 28.02.2027 -
Raoul Bellanova Atalanta Aktiv 147 / 148 40% 2 25.02.2027 -
Tyler Morton Olympique Lyonnais Aktiv 146 / 137 40% 3 24.02.2027 -
Juanlu Bournemouth Aktiv 144 / 152 40% 2 22.02.2027 -
Lewis Hall Newcastle United Aktiv 147 / 147 40% 2 22.02.2027 -
Sven Botman Newcastle United Aktiv 159 / 159 40% 3 21.02.2027 -
Sandro Tonali Tottenham Aktiv 171 / 170 40% 1 20.02.2027 -
Ian Maatsen Aston Villa Aktiv 156 / 156 40% 1 15.02.2027 -
Aaron Hickey Brentford Aktiv 141 / 138 40% 2 14.02.2027 -
Jarrad Branthwaite Everton Aktiv 152 / 151 40% 1 13.02.2027 -
Alexsandro Ribeiro LOSC Lille Aktiv 144 / 154 40% 2 08.02.2027 -
Lamine Camara Monaco Aktiv 134 / 140 40% 1 07.02.2027 -
Curtis Jones Inter Aktiv 156 / 156 40% 1 05.02.2027 -
André Wolverhampton Aktiv 140 / 140 40% 2 03.02.2027 -
Alex Scott Bournemouth Aktiv 153 / 154 40% 1 03.02.2027 -
Diego Coppola Paris FC Aktiv 137 / 146 40% 1 05.01.2027 -
Quinten Timber Crystal Palace Aktiv 151 / 147 40% 1 04.01.2027 -
Jacob Greaves Ipswich Town Aktiv 136 / 129 40% 1 04.01.2027 -
Chukwubuikem Ikwuemesi OH Leuven Aktiv 122 / 112 40% 6 02.01.2027 -
Nicolò Tresoldi Club Brugge Aktiv 137 / 134 40% 3 02.01.2027 -
Murphy Cooper Plymouth Argyle Aktiv 110 / 107 40% 3 30.12.2026 -
Yehvann Diouf OGC Nice Aktiv 134 / 136 40% 4 23.12.2026 -
Lucas Lund Viborg Aktiv 125 / 106 40% 1 20.12.2026 -
Federico Chiesa Liverpool Aktiv 152 / 154 40% 4 18.12.2026 -
Josh Keeley Luton Town Aktiv 120 / 115 40% 2 14.12.2026 -
Jonathan Fischer FC Metz Aktiv 136 / 134 40% 3 10.12.2026 -
Raúl Rangel Braga Aktiv 136 / 129 40% 2 10.12.2026 -
Robin Roefs Sunderland Aktiv 144 / 149 40% 1 10.12.2026 -
James Trafford Leeds United Aktiv 147 / 146 40% 7 26.11.2026 -
Stefan Bajić AC Ajaccio Aktiv 111 / 117 40% 1 26.11.2026 -
Matvey Safonov Paris Saint-Germain Aktiv 158 / 153 40% 3 25.11.2026 -
Ousmane Dembélé Paris Saint-Germain Aktiv 184 / 178 40% 2 24.11.2026 -
Anthony Patterson Wrexham Aktiv 129 / 134 40% 4 14.11.2026 -
Radek Vítek Middlesbrough Aktiv 127 / 129 40% 5 12.11.2026 -
Nathan Trott Cardiff City Aktiv 125 / 120 40% 2 31.10.2026 -
Nicolás Sumavil Platense Aktiv 124 / 123 40% 1 30.10.2026 -
Mauro Silveira Junior Aktiv 121 / 110 40% 2 29.10.2026 -
Zion Suzuki Aston Villa Aktiv 136 / 138 40% 5 28.10.2026 -
Patrick Schulte Columbus Crew Aktiv 114 / 120 40% 2 27.10.2026 -
Luis Ingolotti Atlético Tucumán Aktiv 124 / 112 40% 2 23.10.2026 -
Berke Özer LOSC Lille Aktiv 131 / 143 40% 3 22.10.2026 -
Brent Gabriel Zulte Waregem Aktiv 119 / 116 40% 2 18.10.2026 -
Andreas Jungdal Westerlo Aktiv 123 / 117 40% 2 17.10.2026 -
Mads Hermansen West Ham United Aktiv 141 / 141 40% 1 16.10.2026 -
Keisuke Osako Sanfrecce Hiroshima Aktiv 135 / 149 40% 1 09.10.2026 -
Joseph Leclercq Tottenham Aktiv 149 / 155 40% 3 08.10.2026 -
Rafiu Durosinmi Racing Genk Aktiv 129 / 137 40% 2 03.10.2026 -
Adriano Bertaccini Anderlecht Aktiv 128 / 113 40% 1 03.10.2026 -
Wessam Abou Ali Columbus Crew Aktiv 125 / 140 40% 3 02.10.2026 -
Bénie Traoré New York City Aktiv 118 / 110 40% 1 27.09.2026 -
Ryotaro Araki Sint-Truiden Aktiv 114 / 114 40% 3 26.09.2026 -
Kévin Denkey FC Cincinnati Aktiv 126 / 126 40% 1 26.09.2026 -
Talles Magno New York City Aktiv 131 / 138 40% 1 25.09.2026 -
Isa Sakamoto Westerlo Aktiv 113 / 116 40% 1 17.09.2026 -
Tobias Lawal Twente Aktiv 121 / 119 40% 1 16.09.2026 -
Ramiro Ruiz Rodríguez Atlético Tucumán Aktiv 111 / 135 40% 1 14.09.2026 -
Alejandro Piedrahita Deportivo Pereira Aktiv 128 / 130 40% 1 12.09.2026 -
Tadeo Allende Inter Miami CF Aktiv 130 / 133 40% 1 11.09.2026 -
Pathé Mboup Stade Brestois Aktiv 114 / 121 76% 1 17.08.2026 Befürworten
Achraf Hakimi Paris Saint-Germain Aktiv 175 / 175 40% 1 17.08.2026 -
Matheus Nunes Manchester City Aktiv 161 / 162 40% 1 01.08.2026 -
Miloš Kerkez Liverpool Aktiv 152 / 146 40% 1 01.08.2026 -